Saturday, February 24, 2018, 3:13 AM EST
Back to Local

KRME, Griffiss Airfield

Location: Rome, NY, United States Lat: 43.233
Local Time: 3:13 AM EST ( 8:13 GMT) Lon: -75.4
Time Zone: US/Eastern Elev: 505 ft

Show me the last for .
Show Decoded

2018-02-24 02:53 METAR KRME 240753Z AUTO 29008KT 10SM SCT012 OVC032 05/04 A3014 RMK AO2 SLP210
                 T00500044 =
2018-02-24 02:21 METAR KRME 240721Z AUTO 28007KT 10SM FEW009 BKN014 OVC021 06/04 A3015 RMK AO2
                 T00560044 =
2018-02-24 01:53 METAR KRME 240653Z AUTO 29009KT 10SM OVC012 05/05 A3014 RMK AO2 RAE0554 SLP210
                 P0000 T00500050 =
2018-02-24 01:39 METAR KRME 240639Z AUTO 29009KT 10SM OVC010 05/05 A3014 RMK AO2 RAE0554 CIG
                 006V014 P0000 T00500050 =
2018-02-24 01:17 METAR KRME 240617Z AUTO 29006KT 6SM BR OVC006 04/04 A3014 RMK AO2 RAE0554 CIG
                 003V008 P0000 T00440039 =
2018-02-24 00:53 METAR KRME 240553Z AUTO 32004KT 3SM -RA BR BKN004 OVC017 03/03 A3013 RMK AO2
                 UPB0459E09RAB36 SLP207 P0001 60004 T00330033 10044 20022 53013 =
2018-02-24 00:41 METAR KRME 240541Z AUTO 31005KT 2 1/2SM -RA BR BKN004 OVC015 04/04 A3013 RMK AO2
                 UPB0459E09RAB36 P0001 T00390039 =
2018-02-24 00:34 METAR KRME 240534Z AUTO 29005KT 3SM BR BKN006 OVC017 03/03 A3013 RMK AO2
                 UPB0459E09 P0001 T00330033 =
2018-02-24 00:27 METAR KRME 240527Z AUTO 29005KT 2 1/2SM BR BKN004 OVC008 03/03 A3013 RMK AO2
                 UPB0459E09 P0001 T00330033 =
2018-02-23 23:53 METAR KRME 240453Z AUTO 32003KT 1 3/4SM BR OVC004 03/03 A3012 RMK AO2
                 RAE28UPB28E43 SLP201 P0002 T00280028 400441022 =
2018-02-23 23:46 METAR KRME 240446Z AUTO 00000KT 1 3/4SM BR OVC004 03/03 A3011 RMK AO2
                 RAE28UPB28E43 P0002 T00280028 =
2018-02-23 23:24 METAR KRME 240424Z AUTO 00000KT 1 1/2SM -RA BR BKN006 OVC010 03/03 A3011 RMK AO2
                 P0001 T00280028 =
2018-02-23 23:16 METAR KRME 240416Z AUTO 00000KT 2SM -RA BR OVC008 03/03 A3010 RMK AO2 CIG
                 006V011 P0001 T00330033 =
2018-02-23 22:53 METAR KRME 240353Z AUTO 04004KT 2 1/2SM -RA BR OVC011 03/03 A3010 RMK AO2 RAB36
                 SLP195 P0000 T00330028 =
2018-02-23 22:19 METAR KRME 240319Z AUTO 09004KT 10SM OVC014 04/04 A3009 RMK AO2 T00440039 =
2018-02-23 21:53 METAR KRME 240253Z AUTO 09005KT 10SM OVC015 04/03 A3009 RMK AO2 SLP194 60001
                 T00390033 56018 =
2018-02-23 21:16 METAR KRME 240216Z AUTO 10008KT 10SM OVC015 04/03 A3010 RMK AO2 T00390028 =
2018-02-23 20:53 METAR KRME 240153Z 09008KT 8SM OVC014 03/03 A3011 RMK AO2 RAB11E33 SLP200 P0000
                 T00330028 =
2018-02-23 20:37 METAR KRME 240137Z 09008KT 6SM BR OVC014 03/03 A3011 RMK AO2 RAB11E33 P0000
                 T00330028 =
2018-02-23 19:53 METAR KRME 240053Z 10008KT 10SM OVC017 03/02 A3013 RMK AO2 RAE29 SLP205 P0001
                 T00280022 =
2018-02-23 18:53 METAR KRME 232353Z 10009KT 3SM -RA BR OVC018 02/02 A3015 RMK AO2
                 RAE42B50UPB42E50 SLP213 P0005 60023 T00220017 10022 20000 56013 =
2018-02-23 18:49 METAR KRME 232349Z 10010KT 2 1/2SM UP BR OVC018 02/02 A3015 RMK AO2 RAE42UPB42
                 P0005 =
2018-02-23 17:53 METAR KRME 232253Z 10009KT 5SM RA BR OVC019 02/01 A3016 RMK AO2 SLP217 P0004
                 T00220011 =
2018-02-23 16:53 METAR KRME 232153Z 09006KT 6SM -RA BR OVC019 02/01 A3019 RMK AO2 SLP227 P0003
                 T00170011 =
2018-02-23 16:29 METAR KRME 232129Z 12009KT 4SM -RA BR FEW009 OVC017 02/01 A3020 RMK AO2 P0002
                 T00170011 =
2018-02-23 16:20 METAR KRME 232120Z 11007KT 3SM -RA BR OVC017 02/01 A3020 RMK AO2 P0001 T00170011
                 =
2018-02-23 16:15 METAR KRME 232115Z 10008KT 2SM -RA BR OVC017 02/01 A3021 RMK AO2 P0001 T00170006
                 =
2018-02-23 15:53 METAR KRME 232053Z 11008KT 5SM -RA BR OVC020 01/01 A3021 RMK AO2 SLP234 P0005
                 60011 T00110006 56045 =
2018-02-23 15:42 METAR KRME 232042Z 12009KT 5SM -RA BR OVC021 01/01 A3021 RMK AO2 P0005 T00110006
                 =
2018-02-23 15:28 METAR KRME 232028Z 11009KT 2SM +RA BR OVC021 01/01 A3022 RMK AO2 P0004 T00110006
                 =
2018-02-23 14:53 METAR KRME 231953Z 12010KT 8SM -RA OVC021 01/00 A3024 RMK AO2 UPE07RAB07 SLP245
                 P0003 T00110000 =
2018-02-23 13:53 METAR KRME 231853Z 11009KT 3SM UP BR OVC020 00/M01 A3030 RMK AO2 RAB13E41UPB41
                 SLP266 P0003 T00001011 =
2018-02-23 12:53 METAR KRME 231753Z 12010KT 10SM OVC021 01/M03 A3034 RMK AO2 SLP279 60000
                 T00061028 10006 21022 56047 =
2018-02-23 11:53 METAR KRME 231653Z 11015KT 10SM OVC021 00/M03 A3038 RMK AO2 UPB19E41 PRESFR
                 SLP292 P0000 T00001028 =
2018-02-23 11:28 METAR KRME 231628Z 12013KT 4SM UP BKN020 OVC038 00/M03 A3041 RMK AO2 UPB19 P0000
                 T00001033 =
2018-02-23 10:53 METAR KRME 231553Z 12014G20KT 10SM OVC039 M01/M04 A3044 RMK AO2 PRESFR SLP312
                 T10061044 =
2018-02-23 09:53 METAR KRME 231453Z 12012KT 10SM SCT038 OVC050 M01/M05 A3049 RMK AO2 SLP328
                 T10111050 58031 =
2018-02-23 08:53 METAR KRME 231353Z 11011KT 10SM FEW065 M01/M06 A3053 RMK AO2 SLP341 T10111061 =
2018-02-23 07:53 METAR KRME 231253Z 12012KT 10SM BKN090 OVC110 M02/M07 A3056 RMK AO2 SLP352
                 T10221067 =
2018-02-23 06:53 METAR KRME 231153Z 11015G23KT 10SM OVC100 M02/M06 A3058 RMK AO2 SLP359 70014
                 T10221061 11006 21022 56018 =
2018-02-23 05:53 METAR KRME 231053Z AUTO 13008KT 10SM SCT013 BKN100 M02/M04 A3059 RMK AO2 SLP364
                 T10171039 =
2018-02-23 05:26 METAR KRME 231026Z AUTO 11007KT 10SM FEW011 M02/M03 A3060 RMK AO2 T10171033 =
2018-02-23 04:53 METAR KRME 230953Z AUTO 13010KT 10SM OVC013 M01/M03 A3061 RMK AO2 SLP371
                 T10111028 =
2018-02-23 03:53 METAR KRME 230853Z AUTO 10006KT 10SM OVC012 M01/M03 A3063 RMK AO2 SLP378
                 T10111028 56015 =

Support USWX by starting your Amazon purchase here.